sensor_id;sensor_type;location;lat;lon;timestamp;P1;durP1;ratioP1;P2;durP2;ratioP2
18789;SDS011;9523;42.650;23.386;2022-09-21T00:01:06;3.47;;;2.50;;
18789;SDS011;9523;42.650;23.386;2022-09-21T00:03:33;81.43;;;35.83;;
18789;SDS011;9523;42.650;23.386;2022-09-21T00:06:01;52.63;;;24.13;;
18789;SDS011;9523;42.650;23.386;2022-09-21T00:08:29;24.07;;;11.47;;
18789;SDS011;9523;42.650;23.386;2022-09-21T00:10:55;31.83;;;15.00;;
18789;SDS011;9523;42.650;23.386;2022-09-21T00:13:23;5.87;;;4.13;;
18789;SDS011;9523;42.650;23.386;2022-09-21T00:15:53;4.13;;;2.43;;
18789;SDS011;9523;42.650;23.386;2022-09-21T00:18:20;2.53;;;2.30;;
18789;SDS011;9523;42.650;23.386;2022-09-21T00:20:48;2.50;;;2.10;;
18789;SDS011;9523;42.650;23.386;2022-09-21T00:23:16;3.03;;;2.50;;
18789;SDS011;9523;42.650;23.386;2022-09-21T00:25:43;3.63;;;2.23;;
18789;SDS011;9523;42.650;23.386;2022-09-21T00:28:10;2.50;;;2.30;;
18789;SDS011;9523;42.650;23.386;2022-09-21T00:30:37;2.80;;;2.50;;
18789;SDS011;9523;42.650;23.386;2022-09-21T00:33:05;3.03;;;2.70;;
18789;SDS011;9523;42.650;23.386;2022-09-21T00:35:34;2.50;;;2.00;;
18789;SDS011;9523;42.650;23.386;2022-09-21T00:38:01;3.47;;;2.30;;
18789;SDS011;9523;42.650;23.386;2022-09-21T00:40:29;2.57;;;2.37;;
18789;SDS011;9523;42.650;23.386;2022-09-21T00:43:09;3.13;;;2.13;;
18789;SDS011;9523;42.650;23.386;2022-09-21T00:45:39;2.17;;;1.70;;
18789;SDS011;9523;42.650;23.386;2022-09-21T00:48:09;2.40;;;2.20;;
18789;SDS011;9523;42.650;23.386;2022-09-21T00:50:36;2.30;;;2.10;;
18789;SDS011;9523;42.650;23.386;2022-09-21T00:53:08;2.90;;;1.97;;
18789;SDS011;9523;42.650;23.386;2022-09-21T00:55:36;3.07;;;2.27;;
18789;SDS011;9523;42.650;23.386;2022-09-21T00:58:08;2.73;;;2.30;;
18789;SDS011;9523;42.650;23.386;2022-09-21T01:00:40;2.67;;;2.47;;
18789;SDS011;9523;42.650;23.386;2022-09-21T01:03:09;2.30;;;2.10;;
18789;SDS011;9523;42.650;23.386;2022-09-21T01:05:37;2.60;;;2.27;;
18789;SDS011;9523;42.650;23.386;2022-09-21T01:08:05;3.43;;;2.70;;
18789;SDS011;9523;42.650;23.386;2022-09-21T01:10:40;2.77;;;2.27;;
18789;SDS011;9523;42.650;23.386;2022-09-21T01:13:21;3.70;;;2.57;;
18789;SDS011;9523;42.650;23.386;2022-09-21T01:16:00;2.57;;;2.10;;
18789;SDS011;9523;42.650;23.386;2022-09-21T01:18:40;3.23;;;2.83;;
18789;SDS011;9523;42.650;23.386;2022-09-21T01:21:16;3.87;;;3.47;;
18789;SDS011;9523;42.650;23.386;2022-09-21T01:24:01;4.97;;;3.53;;
18789;SDS011;9523;42.650;23.386;2022-09-21T01:26:51;8.67;;;4.07;;
18789;SDS011;9523;42.650;23.386;2022-09-21T01:29:35;5.20;;;3.97;;
18789;SDS011;9523;42.650;23.386;2022-09-21T01:32:10;4.97;;;3.60;;
18789;SDS011;9523;42.650;23.386;2022-09-21T01:34:41;4.70;;;3.73;;
18789;SDS011;9523;42.650;23.386;2022-09-21T01:37:13;9.40;;;4.57;;
18789;SDS011;9523;42.650;23.386;2022-09-21T01:39:45;5.47;;;4.53;;
18789;SDS011;9523;42.650;23.386;2022-09-21T01:42:16;8.23;;;4.53;;
18789;SDS011;9523;42.650;23.386;2022-09-21T01:44:45;5.43;;;3.90;;
18789;SDS011;9523;42.650;23.386;2022-09-21T01:47:14;6.23;;;4.30;;
18789;SDS011;9523;42.650;23.386;2022-09-21T01:49:44;6.00;;;4.13;;
18789;SDS011;9523;42.650;23.386;2022-09-21T01:52:17;5.43;;;4.20;;
18789;SDS011;9523;42.650;23.386;2022-09-21T01:54:50;5.50;;;4.23;;
18789;SDS011;9523;42.650;23.386;2022-09-21T01:57:22;7.30;;;4.87;;
18789;SDS011;9523;42.650;23.386;2022-09-21T01:59:55;5.63;;;3.63;;
18789;SDS011;9523;42.650;23.386;2022-09-21T02:02:26;6.87;;;3.77;;
18789;SDS011;9523;42.650;23.386;2022-09-21T02:04:57;5.97;;;4.10;;
18789;SDS011;9523;42.650;23.386;2022-09-21T02:07:27;4.73;;;3.77;;
18789;SDS011;9523;42.650;23.386;2022-09-21T02:09:54;3.77;;;3.30;;
18789;SDS011;9523;42.650;23.386;2022-09-21T02:12:21;4.67;;;3.60;;
18789;SDS011;9523;42.650;23.386;2022-09-21T02:14:51;5.70;;;3.80;;
18789;SDS011;9523;42.650;23.386;2022-09-21T02:17:29;4.57;;;4.00;;
18789;SDS011;9523;42.650;23.386;2022-09-21T02:20:07;4.63;;;4.00;;
18789;SDS011;9523;42.650;23.386;2022-09-21T02:22:45;5.57;;;3.67;;
18789;SDS011;9523;42.650;23.386;2022-09-21T02:25:24;4.93;;;3.60;;
18789;SDS011;9523;42.650;23.386;2022-09-21T02:27:59;4.60;;;3.57;;
18789;SDS011;9523;42.650;23.386;2022-09-21T02:30:32;5.50;;;3.77;;
18789;SDS011;9523;42.650;23.386;2022-09-21T02:33:04;6.00;;;4.20;;
18789;SDS011;9523;42.650;23.386;2022-09-21T02:35:37;4.80;;;4.00;;
18789;SDS011;9523;42.650;23.386;2022-09-21T02:38:09;4.73;;;3.73;;
18789;SDS011;9523;42.650;23.386;2022-09-21T02:40:44;5.90;;;3.83;;
18789;SDS011;9523;42.650;23.386;2022-09-21T02:43:18;5.80;;;4.37;;
18789;SDS011;9523;42.650;23.386;2022-09-21T02:45:53;5.40;;;4.13;;
18789;SDS011;9523;42.650;23.386;2022-09-21T02:48:27;8.67;;;4.00;;
18789;SDS011;9523;42.650;23.386;2022-09-21T02:51:02;4.93;;;4.33;;
18789;SDS011;9523;42.650;23.386;2022-09-21T02:53:33;7.10;;;4.53;;
18789;SDS011;9523;42.650;23.386;2022-09-21T02:56:02;4.47;;;3.90;;
18789;SDS011;9523;42.650;23.386;2022-09-21T02:58:32;5.47;;;3.50;;
18789;SDS011;9523;42.650;23.386;2022-09-21T03:01:02;5.03;;;3.60;;
18789;SDS011;9523;42.650;23.386;2022-09-21T03:03:33;5.73;;;3.50;;
18789;SDS011;9523;42.650;23.386;2022-09-21T03:06:00;5.10;;;3.47;;
18789;SDS011;9523;42.650;23.386;2022-09-21T03:08:28;4.17;;;3.67;;
18789;SDS011;9523;42.650;23.386;2022-09-21T03:10:55;6.17;;;3.60;;
18789;SDS011;9523;42.650;23.386;2022-09-21T03:13:23;6.07;;;3.70;;
18789;SDS011;9523;42.650;23.386;2022-09-21T03:15:57;4.73;;;3.50;;
18789;SDS011;9523;42.650;23.386;2022-09-21T03:18:25;5.20;;;3.90;;
18789;SDS011;9523;42.650;23.386;2022-09-21T03:20:56;6.83;;;3.90;;
18789;SDS011;9523;42.650;23.386;2022-09-21T03:23:23;5.47;;;4.10;;
18789;SDS011;9523;42.650;23.386;2022-09-21T03:25:51;5.80;;;4.47;;
18789;SDS011;9523;42.650;23.386;2022-09-21T03:28:18;6.30;;;4.67;;
18789;SDS011;9523;42.650;23.386;2022-09-21T03:30:46;5.83;;;4.43;;
18789;SDS011;9523;42.650;23.386;2022-09-21T03:33:14;7.13;;;4.17;;
18789;SDS011;9523;42.650;23.386;2022-09-21T03:35:41;6.40;;;4.27;;
18789;SDS011;9523;42.650;23.386;2022-09-21T03:38:13;5.87;;;4.47;;
18789;SDS011;9523;42.650;23.386;2022-09-21T03:40:43;6.93;;;4.20;;
18789;SDS011;9523;42.650;23.386;2022-09-21T03:43:10;5.37;;;4.23;;
18789;SDS011;9523;42.650;23.386;2022-09-21T03:45:37;5.77;;;4.00;;
18789;SDS011;9523;42.650;23.386;2022-09-21T03:48:07;5.07;;;3.67;;
18789;SDS011;9523;42.650;23.386;2022-09-21T03:50:34;6.40;;;3.93;;
18789;SDS011;9523;42.650;23.386;2022-09-21T03:53:02;3.90;;;3.37;;
18789;SDS011;9523;42.650;23.386;2022-09-21T03:55:33;5.97;;;4.03;;
18789;SDS011;9523;42.650;23.386;2022-09-21T03:58:00;5.90;;;3.67;;
18789;SDS011;9523;42.650;23.386;2022-09-21T04:00:27;6.70;;;4.10;;
18789;SDS011;9523;42.650;23.386;2022-09-21T04:02:55;4.67;;;3.77;;
18789;SDS011;9523;42.650;23.386;2022-09-21T04:05:22;4.93;;;3.90;;
18789;SDS011;9523;42.650;23.386;2022-09-21T04:07:56;5.50;;;3.50;;
18789;SDS011;9523;42.650;23.386;2022-09-21T04:10:26;6.53;;;3.80;;
18789;SDS011;9523;42.650;23.386;2022-09-21T04:12:59;5.60;;;3.97;;
18789;SDS011;9523;42.650;23.386;2022-09-21T04:15:28;5.57;;;3.53;;
18789;SDS011;9523;42.650;23.386;2022-09-21T04:17:55;5.57;;;4.10;;
18789;SDS011;9523;42.650;23.386;2022-09-21T04:20:23;5.17;;;4.10;;
18789;SDS011;9523;42.650;23.386;2022-09-21T04:22:50;6.57;;;4.50;;
18789;SDS011;9523;42.650;23.386;2022-09-21T04:25:17;6.77;;;4.60;;
18789;SDS011;9523;42.650;23.386;2022-09-21T04:27:44;7.27;;;4.67;;
18789;SDS011;9523;42.650;23.386;2022-09-21T04:30:13;6.93;;;4.57;;
18789;SDS011;9523;42.650;23.386;2022-09-21T04:32:41;11.00;;;5.03;;
18789;SDS011;9523;42.650;23.386;2022-09-21T04:35:08;8.03;;;4.93;;
18789;SDS011;9523;42.650;23.386;2022-09-21T04:37:38;16.33;;;10.10;;
18789;SDS011;9523;42.650;23.386;2022-09-21T04:40:06;6.57;;;5.00;;
18789;SDS011;9523;42.650;23.386;2022-09-21T04:42:34;7.13;;;5.50;;
18789;SDS011;9523;42.650;23.386;2022-09-21T04:45:04;9.90;;;5.43;;
18789;SDS011;9523;42.650;23.386;2022-09-21T04:47:33;8.37;;;5.77;;
18789;SDS011;9523;42.650;23.386;2022-09-21T04:50:00;8.23;;;5.30;;
18789;SDS011;9523;42.650;23.386;2022-09-21T04:52:27;5.77;;;4.73;;
18789;SDS011;9523;42.650;23.386;2022-09-21T04:54:54;5.53;;;4.37;;
18789;SDS011;9523;42.650;23.386;2022-09-21T04:57:21;8.13;;;5.13;;
18789;SDS011;9523;42.650;23.386;2022-09-21T04:59:48;6.03;;;4.37;;
18789;SDS011;9523;42.650;23.386;2022-09-21T05:02:15;5.30;;;4.20;;
18789;SDS011;9523;42.650;23.386;2022-09-21T05:04:43;7.00;;;4.43;;
18789;SDS011;9523;42.650;23.386;2022-09-21T05:07:10;12.57;;;5.80;;
18789;SDS011;9523;42.650;23.386;2022-09-21T05:09:37;13.23;;;6.13;;
18789;SDS011;9523;42.650;23.386;2022-09-21T05:12:21;12.43;;;5.73;;
18789;SDS011;9523;42.650;23.386;2022-09-21T05:14:48;12.70;;;5.23;;
18789;SDS011;9523;42.650;23.386;2022-09-21T05:17:15;8.40;;;5.07;;
18789;SDS011;9523;42.650;23.386;2022-09-21T05:19:43;7.37;;;5.37;;
18789;SDS011;9523;42.650;23.386;2022-09-21T05:22:10;6.80;;;4.83;;
18789;SDS011;9523;42.650;23.386;2022-09-21T05:24:37;7.77;;;5.07;;
18789;SDS011;9523;42.650;23.386;2022-09-21T05:27:04;6.77;;;4.40;;
18789;SDS011;9523;42.650;23.386;2022-09-21T05:29:33;9.23;;;5.00;;
18789;SDS011;9523;42.650;23.386;2022-09-21T05:32:02;15.83;;;5.73;;
18789;SDS011;9523;42.650;23.386;2022-09-21T05:34:36;6.33;;;4.87;;
18789;SDS011;9523;42.650;23.386;2022-09-21T05:37:15;12.30;;;4.83;;
18789;SDS011;9523;42.650;23.386;2022-09-21T05:40:02;10.93;;;5.53;;
18789;SDS011;9523;42.650;23.386;2022-09-21T05:42:30;7.57;;;4.90;;
18789;SDS011;9523;42.650;23.386;2022-09-21T05:44:57;6.13;;;4.57;;
18789;SDS011;9523;42.650;23.386;2022-09-21T05:47:38;8.97;;;4.57;;
18789;SDS011;9523;42.650;23.386;2022-09-21T05:50:15;5.73;;;4.53;;
18789;SDS011;9523;42.650;23.386;2022-09-21T05:52:50;6.00;;;4.60;;
18789;SDS011;9523;42.650;23.386;2022-09-21T05:55:28;5.50;;;4.43;;
18789;SDS011;9523;42.650;23.386;2022-09-21T05:58:05;6.27;;;4.63;;
18789;SDS011;9523;42.650;23.386;2022-09-21T06:00:40;5.17;;;4.30;;
18789;SDS011;9523;42.650;23.386;2022-09-21T06:03:23;6.67;;;5.20;;
18789;SDS011;9523;42.650;23.386;2022-09-21T06:05:53;9.27;;;4.90;;
18789;SDS011;9523;42.650;23.386;2022-09-21T06:08:21;6.07;;;4.10;;
18789;SDS011;9523;42.650;23.386;2022-09-21T06:10:48;6.90;;;4.67;;
18789;SDS011;9523;42.650;23.386;2022-09-21T06:13:15;6.00;;;4.57;;
18789;SDS011;9523;42.650;23.386;2022-09-21T06:15:42;11.67;;;4.60;;
18789;SDS011;9523;42.650;23.386;2022-09-21T06:18:10;10.30;;;5.00;;
18789;SDS011;9523;42.650;23.386;2022-09-21T06:20:38;7.53;;;4.80;;
18789;SDS011;9523;42.650;23.386;2022-09-21T06:23:05;8.97;;;4.93;;
18789;SDS011;9523;42.650;23.386;2022-09-21T06:25:35;7.43;;;5.17;;
18789;SDS011;9523;42.650;23.386;2022-09-21T06:28:02;7.27;;;4.80;;
18789;SDS011;9523;42.650;23.386;2022-09-21T06:30:30;7.40;;;4.93;;
18789;SDS011;9523;42.650;23.386;2022-09-21T06:32:58;10.43;;;4.70;;
18789;SDS011;9523;42.650;23.386;2022-09-21T06:35:26;7.73;;;4.90;;
18789;SDS011;9523;42.650;23.386;2022-09-21T06:37:58;8.47;;;4.57;;
18789;SDS011;9523;42.650;23.386;2022-09-21T06:40:26;5.77;;;4.10;;
18789;SDS011;9523;42.650;23.386;2022-09-21T06:42:58;7.10;;;4.40;;
18789;SDS011;9523;42.650;23.386;2022-09-21T06:45:27;9.07;;;4.40;;
18789;SDS011;9523;42.650;23.386;2022-09-21T06:47:55;7.93;;;4.60;;
18789;SDS011;9523;42.650;23.386;2022-09-21T06:50:22;6.27;;;4.10;;
18789;SDS011;9523;42.650;23.386;2022-09-21T06:52:49;6.03;;;4.47;;
18789;SDS011;9523;42.650;23.386;2022-09-21T06:55:16;6.20;;;4.10;;
18789;SDS011;9523;42.650;23.386;2022-09-21T06:57:43;4.13;;;3.57;;
18789;SDS011;9523;42.650;23.386;2022-09-21T07:00:12;6.07;;;4.03;;
18789;SDS011;9523;42.650;23.386;2022-09-21T07:02:43;4.73;;;3.20;;
18789;SDS011;9523;42.650;23.386;2022-09-21T07:08:18;2.23;;;1.87;;
18789;SDS011;9523;42.650;23.386;2022-09-21T07:10:45;2.43;;;2.00;;
18789;SDS011;9523;42.650;23.386;2022-09-21T07:13:11;4.20;;;2.10;;
18789;SDS011;9523;42.650;23.386;2022-09-21T07:15:41;3.30;;;1.83;;
18789;SDS011;9523;42.650;23.386;2022-09-21T07:18:11;4.40;;;1.87;;
18789;SDS011;9523;42.650;23.386;2022-09-21T07:20:38;2.33;;;1.50;;
18789;SDS011;9523;42.650;23.386;2022-09-21T07:23:09;2.53;;;1.80;;
18789;SDS011;9523;42.650;23.386;2022-09-21T07:25:36;2.20;;;2.00;;
18789;SDS011;9523;42.650;23.386;2022-09-21T07:28:04;7.10;;;2.10;;
18789;SDS011;9523;42.650;23.386;2022-09-21T07:30:30;2.27;;;2.00;;
18789;SDS011;9523;42.650;23.386;2022-09-21T07:32:59;2.30;;;2.00;;
18789;SDS011;9523;42.650;23.386;2022-09-21T07:35:25;2.77;;;1.77;;
18789;SDS011;9523;42.650;23.386;2022-09-21T07:37:52;3.83;;;1.90;;
18789;SDS011;9523;42.650;23.386;2022-09-21T07:40:22;3.07;;;2.17;;
18789;SDS011;9523;42.650;23.386;2022-09-21T07:42:49;3.30;;;2.30;;
18789;SDS011;9523;42.650;23.386;2022-09-21T07:45:16;4.83;;;3.03;;
18789;SDS011;9523;42.650;23.386;2022-09-21T07:47:43;2.63;;;2.20;;
18789;SDS011;9523;42.650;23.386;2022-09-21T07:50:11;4.97;;;2.40;;
18789;SDS011;9523;42.650;23.386;2022-09-21T07:52:38;2.53;;;2.13;;
18789;SDS011;9523;42.650;23.386;2022-09-21T07:55:05;2.83;;;1.63;;
18789;SDS011;9523;42.650;23.386;2022-09-21T07:57:33;1.80;;;1.60;;
18789;SDS011;9523;42.650;23.386;2022-09-21T08:00:17;2.13;;;1.93;;
18789;SDS011;9523;42.650;23.386;2022-09-21T08:02:47;2.67;;;2.10;;
18789;SDS011;9523;42.650;23.386;2022-09-21T08:05:15;4.83;;;1.83;;
18789;SDS011;9523;42.650;23.386;2022-09-21T08:07:42;2.87;;;2.23;;
18789;SDS011;9523;42.650;23.386;2022-09-21T08:10:10;3.90;;;2.00;;
18789;SDS011;9523;42.650;23.386;2022-09-21T08:12:37;2.30;;;2.10;;
18789;SDS011;9523;42.650;23.386;2022-09-21T08:15:04;2.13;;;1.73;;
18789;SDS011;9523;42.650;23.386;2022-09-21T08:17:32;5.10;;;2.90;;
18789;SDS011;9523;42.650;23.386;2022-09-21T08:19:59;3.63;;;2.10;;
18789;SDS011;9523;42.650;23.386;2022-09-21T08:22:28;3.40;;;2.20;;
18789;SDS011;9523;42.650;23.386;2022-09-21T08:24:54;5.47;;;2.10;;
18789;SDS011;9523;42.650;23.386;2022-09-21T08:27:21;1.60;;;1.50;;
18789;SDS011;9523;42.650;23.386;2022-09-21T08:29:49;1.93;;;1.77;;
18789;SDS011;9523;42.650;23.386;2022-09-21T08:32:16;3.87;;;1.87;;
18789;SDS011;9523;42.650;23.386;2022-09-21T08:34:43;2.90;;;2.03;;
18789;SDS011;9523;42.650;23.386;2022-09-21T08:37:10;4.23;;;1.83;;
18789;SDS011;9523;42.650;23.386;2022-09-21T08:39:38;2.57;;;1.70;;
18789;SDS011;9523;42.650;23.386;2022-09-21T08:42:09;2.13;;;1.80;;
18789;SDS011;9523;42.650;23.386;2022-09-21T08:44:50;4.83;;;2.60;;
18789;SDS011;9523;42.650;23.386;2022-09-21T08:47:25;2.47;;;2.17;;
18789;SDS011;9523;42.650;23.386;2022-09-21T08:50:01;3.57;;;2.30;;
18789;SDS011;9523;42.650;23.386;2022-09-21T08:52:29;3.23;;;1.67;;
18789;SDS011;9523;42.650;23.386;2022-09-21T08:55:00;3.07;;;1.87;;
18789;SDS011;9523;42.650;23.386;2022-09-21T08:57:43;2.00;;;1.53;;
18789;SDS011;9523;42.650;23.386;2022-09-21T09:00:12;3.63;;;1.50;;
18789;SDS011;9523;42.650;23.386;2022-09-21T09:02:44;3.27;;;1.73;;
18789;SDS011;9523;42.650;23.386;2022-09-21T09:05:31;2.10;;;1.40;;
18789;SDS011;9523;42.650;23.386;2022-09-21T09:11:10;1.70;;;1.30;;
18789;SDS011;9523;42.650;23.386;2022-09-21T09:13:52;1.67;;;1.57;;
18789;SDS011;9523;42.650;23.386;2022-09-21T09:16:35;2.73;;;1.73;;
18789;SDS011;9523;42.650;23.386;2022-09-21T09:19:16;3.30;;;1.40;;
18789;SDS011;9523;42.650;23.386;2022-09-21T09:21:48;1.50;;;1.30;;
18789;SDS011;9523;42.650;23.386;2022-09-21T09:24:17;1.70;;;1.40;;
18789;SDS011;9523;42.650;23.386;2022-09-21T09:26:56;2.70;;;1.40;;
18789;SDS011;9523;42.650;23.386;2022-09-21T09:29:30;1.60;;;1.50;;
18789;SDS011;9523;42.650;23.386;2022-09-21T09:32:03;2.90;;;1.43;;
18789;SDS011;9523;42.650;23.386;2022-09-21T09:34:31;4.10;;;1.30;;
18789;SDS011;9523;42.650;23.386;2022-09-21T09:37:04;2.87;;;1.50;;
18789;SDS011;9523;42.650;23.386;2022-09-21T09:39:38;2.60;;;1.37;;
18789;SDS011;9523;42.650;23.386;2022-09-21T09:42:25;1.83;;;1.33;;
18789;SDS011;9523;42.650;23.386;2022-09-21T09:48:03;2.37;;;1.60;;
18789;SDS011;9523;42.650;23.386;2022-09-21T09:50:43;2.00;;;1.60;;
18789;SDS011;9523;42.650;23.386;2022-09-21T09:53:12;1.40;;;1.30;;
18789;SDS011;9523;42.650;23.386;2022-09-21T09:55:43;1.77;;;1.23;;
18789;SDS011;9523;42.650;23.386;2022-09-21T09:58:18;1.77;;;1.30;;
18789;SDS011;9523;42.650;23.386;2022-09-21T10:00:46;1.10;;;1.00;;
18789;SDS011;9523;42.650;23.386;2022-09-21T10:03:18;2.20;;;1.40;;
18789;SDS011;9523;42.650;23.386;2022-09-21T10:05:48;1.53;;;1.30;;
18789;SDS011;9523;42.650;23.386;2022-09-21T10:08:28;1.43;;;1.23;;
18789;SDS011;9523;42.650;23.386;2022-09-21T10:11:07;3.90;;;1.53;;
18789;SDS011;9523;42.650;23.386;2022-09-21T10:13:37;1.20;;;1.10;;
18789;SDS011;9523;42.650;23.386;2022-09-21T10:16:05;1.83;;;1.00;;
18789;SDS011;9523;42.650;23.386;2022-09-21T10:18:38;1.67;;;1.03;;
18789;SDS011;9523;42.650;23.386;2022-09-21T10:21:14;1.57;;;1.07;;
18789;SDS011;9523;42.650;23.386;2022-09-21T10:23:44;0.93;;;0.90;;
18789;SDS011;9523;42.650;23.386;2022-09-21T10:26:14;0.83;;;0.80;;
18789;SDS011;9523;42.650;23.386;2022-09-21T10:28:55;2.43;;;1.50;;
18789;SDS011;9523;42.650;23.386;2022-09-21T10:31:24;4.00;;;2.33;;
18789;SDS011;9523;42.650;23.386;2022-09-21T10:33:53;2.43;;;1.90;;
18789;SDS011;9523;42.650;23.386;2022-09-21T10:36:32;2.77;;;1.90;;
18789;SDS011;9523;42.650;23.386;2022-09-21T10:39:10;2.03;;;0.90;;
18789;SDS011;9523;42.650;23.386;2022-09-21T10:41:42;3.08;;;1.40;;
18789;SDS011;9523;42.650;23.386;2022-09-21T10:44:16;2.25;;;1.23;;
18789;SDS011;9523;42.650;23.386;2022-09-21T10:46:45;0.75;;;0.75;;
18789;SDS011;9523;42.650;23.386;2022-09-21T10:49:14;2.10;;;0.90;;
18789;SDS011;9523;42.650;23.386;2022-09-21T10:51:46;0.70;;;0.70;;
18789;SDS011;9523;42.650;23.386;2022-09-21T10:54:16;3.67;;;1.92;;
18789;SDS011;9523;42.650;23.386;2022-09-21T10:56:51;2.17;;;1.10;;
18789;SDS011;9523;42.650;23.386;2022-09-21T10:59:23;0.90;;;0.70;;
18789;SDS011;9523;42.650;23.386;2022-09-21T11:01:55;0.70;;;0.70;;
18789;SDS011;9523;42.650;23.386;2022-09-21T11:04:35;1.40;;;0.93;;
18789;SDS011;9523;42.650;23.386;2022-09-21T11:07:09;1.42;;;0.65;;
18789;SDS011;9523;42.650;23.386;2022-09-21T11:09:43;1.17;;;0.65;;
18789;SDS011;9523;42.650;23.386;2022-09-21T11:15:22;0.60;;;0.60;;
18789;SDS011;9523;42.650;23.386;2022-09-21T11:18:01;0.70;;;0.70;;
18789;SDS011;9523;42.650;23.386;2022-09-21T11:20:38;0.70;;;0.65;;
18789;SDS011;9523;42.650;23.386;2022-09-21T11:23:10;1.73;;;0.60;;
18789;SDS011;9523;42.650;23.386;2022-09-21T11:25:45;0.90;;;0.63;;
18789;SDS011;9523;42.650;23.386;2022-09-21T11:28:20;1.05;;;0.70;;
18789;SDS011;9523;42.650;23.386;2022-09-21T11:33:57;0.63;;;0.60;;
18789;SDS011;9523;42.650;23.386;2022-09-21T11:36:45;0.80;;;0.70;;
18789;SDS011;9523;42.650;23.386;2022-09-21T11:39:26;0.70;;;0.60;;
18789;SDS011;9523;42.650;23.386;2022-09-21T11:42:06;0.73;;;0.73;;
18789;SDS011;9523;42.650;23.386;2022-09-21T11:44:48;2.43;;;0.90;;
18789;SDS011;9523;42.650;23.386;2022-09-21T11:50:28;1.80;;;1.03;;
18789;SDS011;9523;42.650;23.386;2022-09-21T11:53:10;0.70;;;0.70;;
18789;SDS011;9523;42.650;23.386;2022-09-21T11:56:00;1.90;;;0.90;;
18789;SDS011;9523;42.650;23.386;2022-09-21T11:58:36;0.73;;;0.40;;
18789;SDS011;9523;42.650;23.386;2022-09-21T12:01:16;0.80;;;0.63;;
18789;SDS011;9523;42.650;23.386;2022-09-21T12:04:02;2.50;;;0.70;;
18789;SDS011;9523;42.650;23.386;2022-09-21T12:06:47;1.17;;;0.60;;
18789;SDS011;9523;42.650;23.386;2022-09-21T12:09:46;1.23;;;0.63;;
18789;SDS011;9523;42.650;23.386;2022-09-21T12:12:31;2.03;;;0.63;;
18789;SDS011;9523;42.650;23.386;2022-09-21T12:15:05;0.60;;;0.60;;
18789;SDS011;9523;42.650;23.386;2022-09-21T12:17:38;1.43;;;0.70;;
18789;SDS011;9523;42.650;23.386;2022-09-21T12:20:15;2.73;;;0.83;;
18789;SDS011;9523;42.650;23.386;2022-09-21T12:22:51;0.70;;;0.67;;
18789;SDS011;9523;42.650;23.386;2022-09-21T12:25:26;0.70;;;0.70;;
18789;SDS011;9523;42.650;23.386;2022-09-21T12:28:02;1.00;;;0.80;;
18789;SDS011;9523;42.650;23.386;2022-09-21T12:30:34;8.50;;;4.70;;
18789;SDS011;9523;42.650;23.386;2022-09-21T12:33:11;3.30;;;2.43;;
18789;SDS011;9523;42.650;23.386;2022-09-21T12:35:46;0.80;;;0.70;;
18789;SDS011;9523;42.650;23.386;2022-09-21T12:38:20;0.73;;;0.50;;
18789;SDS011;9523;42.650;23.386;2022-09-21T12:40:51;0.70;;;0.70;;
18789;SDS011;9523;42.650;23.386;2022-09-21T12:43:27;1.05;;;0.65;;
18789;SDS011;9523;42.650;23.386;2022-09-21T12:46:01;0.60;;;0.57;;
18789;SDS011;9523;42.650;23.386;2022-09-21T12:48:32;0.60;;;0.50;;
18789;SDS011;9523;42.650;23.386;2022-09-21T12:51:04;0.60;;;0.50;;
18789;SDS011;9523;42.650;23.386;2022-09-21T12:53:39;1.53;;;0.60;;
18789;SDS011;9523;42.650;23.386;2022-09-21T12:56:10;0.50;;;0.50;;
18789;SDS011;9523;42.650;23.386;2022-09-21T12:58:45;2.30;;;0.63;;
18789;SDS011;9523;42.650;23.386;2022-09-21T13:01:33;1.20;;;0.77;;
18789;SDS011;9523;42.650;23.386;2022-09-21T13:04:19;1.77;;;0.60;;
18789;SDS011;9523;42.650;23.386;2022-09-21T13:10:13;0.67;;;0.60;;
18789;SDS011;9523;42.650;23.386;2022-09-21T13:12:43;0.70;;;0.53;;
18789;SDS011;9523;42.650;23.386;2022-09-21T13:15:13;2.10;;;1.40;;
18789;SDS011;9523;42.650;23.386;2022-09-21T13:17:46;0.70;;;0.70;;
18789;SDS011;9523;42.650;23.386;2022-09-21T13:20:24;0.63;;;0.63;;
18789;SDS011;9523;42.650;23.386;2022-09-21T13:22:56;1.37;;;0.70;;
18789;SDS011;9523;42.650;23.386;2022-09-21T13:25:28;1.00;;;0.70;;
18789;SDS011;9523;42.650;23.386;2022-09-21T13:27:58;0.77;;;0.60;;
18789;SDS011;9523;42.650;23.386;2022-09-21T13:30:38;1.00;;;0.90;;
18789;SDS011;9523;42.650;23.386;2022-09-21T13:36:04;1.27;;;1.00;;
18789;SDS011;9523;42.650;23.386;2022-09-21T13:38:56;6.30;;;3.83;;
18789;SDS011;9523;42.650;23.386;2022-09-21T13:41:31;5.40;;;3.23;;
18789;SDS011;9523;42.650;23.386;2022-09-21T13:44:04;3.40;;;2.13;;
18789;SDS011;9523;42.650;23.386;2022-09-21T13:46:47;1.13;;;0.90;;
18789;SDS011;9523;42.650;23.386;2022-09-21T13:52:24;1.00;;;0.90;;
18789;SDS011;9523;42.650;23.386;2022-09-21T13:54:56;0.83;;;0.77;;
18789;SDS011;9523;42.650;23.386;2022-09-21T13:57:27;3.10;;;1.80;;
18789;SDS011;9523;42.650;23.386;2022-09-21T14:00:06;10.83;;;6.30;;
18789;SDS011;9523;42.650;23.386;2022-09-21T14:02:53;1.47;;;1.03;;
18789;SDS011;9523;42.650;23.386;2022-09-21T14:05:26;1.42;;;0.70;;
18789;SDS011;9523;42.650;23.386;2022-09-21T14:08:02;1.33;;;0.70;;
18789;SDS011;9523;42.650;23.386;2022-09-21T14:10:32;0.50;;;0.50;;
18789;SDS011;9523;42.650;23.386;2022-09-21T14:13:05;1.63;;;0.77;;
18789;SDS011;9523;42.650;23.386;2022-09-21T14:15:48;2.33;;;0.87;;
18789;SDS011;9523;42.650;23.386;2022-09-21T14:18:21;1.17;;;0.90;;
18789;SDS011;9523;42.650;23.386;2022-09-21T14:21:08;1.60;;;0.90;;
18789;SDS011;9523;42.650;23.386;2022-09-21T14:23:41;1.40;;;0.77;;
18789;SDS011;9523;42.650;23.386;2022-09-21T14:27:02;1.20;;;1.10;;
18789;SDS011;9523;42.650;23.386;2022-09-21T14:29:42;1.60;;;1.30;;
18789;SDS011;9523;42.650;23.386;2022-09-21T14:32:17;2.67;;;1.13;;
18789;SDS011;9523;42.650;23.386;2022-09-21T14:34:50;3.33;;;1.70;;
18789;SDS011;9523;42.650;23.386;2022-09-21T14:37:24;3.27;;;2.50;;
18789;SDS011;9523;42.650;23.386;2022-09-21T14:39:58;15.17;;;4.03;;
18789;SDS011;9523;42.650;23.386;2022-09-21T14:42:30;4.57;;;1.77;;
18789;SDS011;9523;42.650;23.386;2022-09-21T14:44:58;4.37;;;2.13;;
18789;SDS011;9523;42.650;23.386;2022-09-21T14:50:21;1.40;;;1.20;;
18789;SDS011;9523;42.650;23.386;2022-09-21T14:53:02;1.50;;;1.33;;
18789;SDS011;9523;42.650;23.386;2022-09-21T14:56:02;3.80;;;1.63;;
18789;SDS011;9523;42.650;23.386;2022-09-21T14:58:42;1.60;;;1.40;;
18789;SDS011;9523;42.650;23.386;2022-09-21T15:01:33;2.00;;;1.57;;
18789;SDS011;9523;42.650;23.386;2022-09-21T15:04:17;2.67;;;1.43;;
18789;SDS011;9523;42.650;23.386;2022-09-21T15:06:54;1.47;;;1.37;;
18789;SDS011;9523;42.650;23.386;2022-09-21T15:09:57;2.40;;;1.73;;
18789;SDS011;9523;42.650;23.386;2022-09-21T15:12:57;2.00;;;1.60;;
18789;SDS011;9523;42.650;23.386;2022-09-21T15:15:32;3.77;;;1.47;;
18789;SDS011;9523;42.650;23.386;2022-09-21T15:18:14;3.10;;;2.40;;
18789;SDS011;9523;42.650;23.386;2022-09-21T15:20:44;2.30;;;1.70;;
18789;SDS011;9523;42.650;23.386;2022-09-21T15:23:26;2.23;;;1.50;;
18789;SDS011;9523;42.650;23.386;2022-09-21T15:25:55;3.47;;;1.93;;
18789;SDS011;9523;42.650;23.386;2022-09-21T15:28:27;2.33;;;1.57;;
18789;SDS011;9523;42.650;23.386;2022-09-21T15:31:02;1.90;;;1.70;;
18789;SDS011;9523;42.650;23.386;2022-09-21T15:33:31;1.87;;;1.40;;
18789;SDS011;9523;42.650;23.386;2022-09-21T15:36:05;1.90;;;1.70;;
18789;SDS011;9523;42.650;23.386;2022-09-21T15:38:34;2.33;;;1.87;;
18789;SDS011;9523;42.650;23.386;2022-09-21T15:41:04;1.63;;;1.40;;
18789;SDS011;9523;42.650;23.386;2022-09-21T15:43:31;4.73;;;1.50;;
18789;SDS011;9523;42.650;23.386;2022-09-21T15:46:02;1.63;;;1.50;;
18789;SDS011;9523;42.650;23.386;2022-09-21T15:48:33;1.97;;;1.63;;
18789;SDS011;9523;42.650;23.386;2022-09-21T15:51:03;2.77;;;1.47;;